createdAt,value
2022-08-05T00:00:16.982Z,35.11
2022-08-05T00:03:06.685Z,34.56
2022-08-05T00:06:05.388Z,34.96
2022-08-05T00:11:02.648Z,34.70
2022-08-05T00:13:38.260Z,35.50
2022-08-05T00:16:12.298Z,35.08
2022-08-05T00:18:45.472Z,35.49
2022-08-05T00:21:14.366Z,35.97
2022-08-05T00:23:46.141Z,36.18
2022-08-05T00:26:25.862Z,34.90
2022-08-05T00:28:53.819Z,36.05
2022-08-05T00:31:53.786Z,35.79
2022-08-05T00:34:54.966Z,36.16
2022-08-05T00:37:12.534Z,35.78
2022-08-05T00:39:57.321Z,36.10
2022-08-05T00:42:33.918Z,36.08
2022-08-05T00:45:03.342Z,36.57
2022-08-05T00:47:56.925Z,36.09
2022-08-05T00:50:28.861Z,36.78
2022-08-05T00:52:57.884Z,36.98
2022-08-05T00:55:42.393Z,36.64
2022-08-05T00:58:12.463Z,36.79
2022-08-05T01:00:42.275Z,36.18
2022-08-05T01:03:22.199Z,36.94
2022-08-05T01:08:42.369Z,36.75
2022-08-05T01:11:22.181Z,36.84
2022-08-05T01:14:08.954Z,36.18
2022-08-05T01:16:50.122Z,37.23
2022-08-05T01:19:56.470Z,36.90
2022-08-05T01:22:35.851Z,36.54
2022-08-05T01:25:40.563Z,36.68
2022-08-05T01:28:39.470Z,36.21
2022-08-05T01:31:13.229Z,36.50
2022-08-05T01:33:49.339Z,36.12
2022-08-05T01:36:28.190Z,36.79
2022-08-05T01:39:00.114Z,37.65
2022-08-05T01:41:33.990Z,37.95
2022-08-05T01:44:10.016Z,37.35
2022-08-05T01:46:41.968Z,37.68
2022-08-05T01:49:24.182Z,37.88
2022-08-05T01:51:58.224Z,38.05
2022-08-05T01:54:33.673Z,37.74
2022-08-05T01:58:11.969Z,37.62
2022-08-05T02:00:11.719Z,37.89
2022-08-05T02:02:46.570Z,37.93
2022-08-05T02:05:28.626Z,37.66
2022-08-05T02:08:00.343Z,37.23
2022-08-05T02:10:31.373Z,37.54
2022-08-05T02:13:15.724Z,38.13
2022-08-05T02:15:46.929Z,38.17
2022-08-05T02:18:30.821Z,38.22
2022-08-05T02:21:14.809Z,37.92
2022-08-05T02:23:45.940Z,38.61
2022-08-05T02:26:20.393Z,37.95
2022-08-05T02:28:50.616Z,35.67
2022-08-05T02:31:24.118Z,37.36
2022-08-05T02:33:58.059Z,37.56
2022-08-05T02:36:31.510Z,38.32
2022-08-05T02:39:02.272Z,38.26
2022-08-05T02:41:36.392Z,38.34
2022-08-05T02:44:24.405Z,38.57
2022-08-05T02:47:00.355Z,38.62
2022-08-05T02:49:35.653Z,38.68
2022-08-05T02:52:11.598Z,38.82
2022-08-05T02:54:50.715Z,38.84
2022-08-05T02:58:10.667Z,38.87
2022-08-05T03:00:12.636Z,38.86
2022-08-05T03:02:42.911Z,38.83
2022-08-05T03:05:15.502Z,38.54
2022-08-05T03:08:04.510Z,39.08
2022-08-05T03:10:32.726Z,39.33
2022-08-05T03:15:28.440Z,38.92
2022-08-05T03:18:00.152Z,37.55
2022-08-05T03:20:30.137Z,38.70
2022-08-05T03:22:59.278Z,39.04
2022-08-05T03:25:33.054Z,39.21
2022-08-05T03:28:18.492Z,38.81
2022-08-05T03:30:48.813Z,39.08
2022-08-05T03:33:17.822Z,39.20
2022-08-05T03:35:49.916Z,38.28
2022-08-05T03:38:23.870Z,39.04
2022-08-05T03:41:08.184Z,38.17
2022-08-05T03:44:08.533Z,39.57
2022-08-05T03:46:26.844Z,40.20
2022-08-05T03:48:59.273Z,40.15
2022-08-05T03:52:39.423Z,40.25
2022-08-05T03:55:34.025Z,38.71
2022-08-05T03:57:35.146Z,39.11
2022-08-05T04:00:15.594Z,37.63
2022-08-05T04:02:58.056Z,36.20
2022-08-05T04:05:33.651Z,36.81
2022-08-05T04:08:29.618Z,36.72
2022-08-05T04:10:58.633Z,38.47
2022-08-05T04:13:50.390Z,38.93
2022-08-05T04:16:24.940Z,39.57
2022-08-05T04:18:54.598Z,40.40
2022-08-05T04:22:10.079Z,40.64
2022-08-05T04:24:18.844Z,40.75
2022-08-05T04:26:50.506Z,40.89
2022-08-05T04:29:19.078Z,40.56
2022-08-05T04:34:19.236Z,39.22
2022-08-05T04:37:03.127Z,39.57
2022-08-05T04:42:01.880Z,40.37
2022-08-05T04:44:32.006Z,41.11
2022-08-05T04:47:08.891Z,41.28
2022-08-05T04:50:03.013Z,40.69
2022-08-05T04:52:28.073Z,41.71
2022-08-05T04:54:58.926Z,40.92
2022-08-05T04:57:47.569Z,41.18
2022-08-05T05:02:47.754Z,41.14
2022-08-05T05:05:28.476Z,41.17
2022-08-05T05:08:00.891Z,41.07
2022-08-05T05:10:33.071Z,41.02
2022-08-05T05:13:04.393Z,40.84
2022-08-05T05:15:56.359Z,41.26
2022-08-05T05:18:28.459Z,40.18
2022-08-05T05:21:03.795Z,40.39
2022-08-05T05:23:39.068Z,40.44
2022-08-05T05:26:28.046Z,40.64
2022-08-05T05:28:57.122Z,40.59
2022-08-05T05:31:25.515Z,40.71
2022-08-05T05:34:02.489Z,40.55
2022-08-05T05:36:31.636Z,39.28
2022-08-05T05:39:00.690Z,38.80
2022-08-05T05:41:40.488Z,39.72
2022-08-05T05:44:35.662Z,39.32
2022-08-05T05:47:04.342Z,39.65
2022-08-05T05:49:35.950Z,39.30
2022-08-05T05:52:07.262Z,39.23
2022-08-05T05:54:50.167Z,38.92
2022-08-05T05:57:21.999Z,38.53
2022-08-05T05:59:52.444Z,38.38
2022-08-05T06:02:32.356Z,38.64
2022-08-05T06:05:10.378Z,38.55
2022-08-05T06:07:57.511Z,38.47
2022-08-05T06:10:29.587Z,38.66
2022-08-05T06:13:05.886Z,38.36
2022-08-05T06:18:06.402Z,37.71
2022-08-05T06:20:34.305Z,38.53
2022-08-05T06:23:04.174Z,38.19
2022-08-05T06:26:12.259Z,37.51
2022-08-05T06:28:21.660Z,37.86
2022-08-05T06:30:51.584Z,37.79
2022-08-05T06:36:07.984Z,36.99
2022-08-05T06:38:36.753Z,37.23
2022-08-05T06:41:07.848Z,36.82
2022-08-05T06:43:58.622Z,36.59
2022-08-05T06:46:30.382Z,36.06
2022-08-05T06:49:01.224Z,36.31
2022-08-05T06:53:57.181Z,35.78
2022-08-05T06:56:26.586Z,34.99
2022-08-05T06:58:55.103Z,35.26
2022-08-05T07:01:23.841Z,34.55
2022-08-05T07:04:02.484Z,34.93
2022-08-05T07:06:31.839Z,34.27
2022-08-05T07:09:04.351Z,33.38
2022-08-05T07:11:37.114Z,32.78
2022-08-05T07:14:28.894Z,33.20
2022-08-05T07:17:59.724Z,32.49
2022-08-05T07:22:29.011Z,31.36
2022-08-05T07:25:23.147Z,31.93
2022-08-05T07:27:57.992Z,31.84
2022-08-05T07:30:43.246Z,31.62
2022-08-05T07:36:03.318Z,31.12
2022-08-05T07:38:43.482Z,31.32
2022-08-05T07:42:13.396Z,30.68
2022-08-05T07:44:14.359Z,29.99
2022-08-05T07:46:50.111Z,30.22
2022-08-05T07:49:19.955Z,29.91
2022-08-05T07:51:54.217Z,30.23
2022-08-05T07:54:31.579Z,30.77
2022-08-05T07:57:16.926Z,29.53
2022-08-05T07:59:50.936Z,29.48
2022-08-05T08:02:26.827Z,28.58
2022-08-05T08:04:59.852Z,28.94
2022-08-05T08:07:39.726Z,29.26
2022-08-05T08:10:23.361Z,28.78
2022-08-05T08:12:58.576Z,28.77
2022-08-05T08:15:37.279Z,28.46
2022-08-05T08:18:20.819Z,28.25
2022-08-05T08:21:01.885Z,28.26
2022-08-05T08:24:01.106Z,27.88
2022-08-05T08:26:26.795Z,28.29
2022-08-05T08:29:21.837Z,27.63
2022-08-05T08:31:48.863Z,28.35
2022-08-05T08:34:18.649Z,27.60
2022-08-05T08:36:55.704Z,27.23
2022-08-05T08:39:26.312Z,26.71
2022-08-05T08:45:23.704Z,26.23
2022-08-05T08:48:06.111Z,27.56
2022-08-05T08:50:31.634Z,26.34
2022-08-05T08:53:08.108Z,26.19
2022-08-05T08:56:04.543Z,25.86
2022-08-05T08:58:44.414Z,26.14
2022-08-05T09:01:21.357Z,25.82
2022-08-05T09:03:55.537Z,26.12
2022-08-05T09:06:29.912Z,23.34
2022-08-05T09:09:01.495Z,25.94
2022-08-05T09:11:52.400Z,26.19
2022-08-05T09:14:57.193Z,25.21
2022-08-05T09:17:39.900Z,25.29
2022-08-05T09:23:05.177Z,24.87
2022-08-05T09:26:03.017Z,25.31
2022-08-05T09:28:31.906Z,25.19
2022-08-05T09:31:18.178Z,24.60
2022-08-05T09:33:53.390Z,24.72
2022-08-05T09:36:27.633Z,23.81
2022-08-05T09:39:07.841Z,19.53
2022-08-05T09:42:04.259Z,24.15
2022-08-05T09:44:42.559Z,24.35
2022-08-05T09:47:15.810Z,22.50
2022-08-05T09:50:01.425Z,23.64
2022-08-05T09:52:34.097Z,23.00
2022-08-05T09:55:55.572Z,21.88
2022-08-05T09:57:58.567Z,23.18
2022-08-05T10:00:29.581Z,23.08
2022-08-05T10:03:08.809Z,22.96
2022-08-05T10:08:35.879Z,23.19
2022-08-05T10:10:57.890Z,22.79
2022-08-05T10:13:43.840Z,22.42
2022-08-05T10:16:32.155Z,22.60
2022-08-05T10:19:09.220Z,22.80
2022-08-05T10:21:39.923Z,22.63
2022-08-05T10:24:11.115Z,22.65
2022-08-05T10:26:51.593Z,22.68
2022-08-05T10:30:06.452Z,22.33
2022-08-05T10:32:56.258Z,21.33
2022-08-05T10:35:01.434Z,21.01
2022-08-05T10:37:40.448Z,21.52
2022-08-05T10:40:28.277Z,21.40
2022-08-05T10:48:39.577Z,20.30
2022-08-05T10:51:28.311Z,20.87
2022-08-05T10:53:58.382Z,20.67
2022-08-05T10:56:30.693Z,21.40
2022-08-05T10:59:12.255Z,21.24
2022-08-05T11:02:04.646Z,20.32
2022-08-05T11:04:44.302Z,20.47
2022-08-05T11:07:33.010Z,19.60
2022-08-05T11:10:23.129Z,20.58
2022-08-05T11:12:56.263Z,20.46
2022-08-05T11:16:00.874Z,20.08
2022-08-05T11:20:57.566Z,20.42
2022-08-05T11:24:02.622Z,20.17
2022-08-05T11:26:32.077Z,19.95
2022-08-05T11:29:11.532Z,19.13
2022-08-05T11:31:57.742Z,19.54
2022-08-05T11:34:54.328Z,20.60
2022-08-05T11:41:13.874Z,19.66
2022-08-05T11:44:07.606Z,19.86
2022-08-05T11:47:09.597Z,19.87
2022-08-05T11:49:26.321Z,19.05
2022-08-05T11:54:33.831Z,18.84
2022-08-05T11:57:08.270Z,19.17
2022-08-05T11:59:52.536Z,19.10
2022-08-05T12:02:30.740Z,19.47
2022-08-05T12:05:01.097Z,19.32
2022-08-05T12:08:08.073Z,19.15
2022-08-05T12:10:42.883Z,19.06
2022-08-05T12:13:17.281Z,18.78
2022-08-05T12:15:56.221Z,18.97
2022-08-05T12:18:32.812Z,19.45
2022-08-05T12:21:11.743Z,19.85
2022-08-05T12:23:53.125Z,19.51
2022-08-05T12:26:24.040Z,19.88
2022-08-05T12:28:53.060Z,19.51
2022-08-05T12:31:23.732Z,19.51
2022-08-05T12:34:03.145Z,19.41
2022-08-05T12:36:35.604Z,19.17
2022-08-05T12:39:07.036Z,19.47
2022-08-05T12:41:43.554Z,19.02
2022-08-05T12:44:14.266Z,19.40
2022-08-05T12:46:45.639Z,18.80
2022-08-05T12:49:15.273Z,19.05
2022-08-05T12:52:12.687Z,18.45
2022-08-05T12:54:51.382Z,18.22
2022-08-05T12:57:20.079Z,18.65
2022-08-05T13:01:57.319Z,17.12
2022-08-05T13:02:41.093Z,17.96
2022-08-05T13:05:11.170Z,18.59
2022-08-05T13:08:01.125Z,18.41
2022-08-05T13:10:35.011Z,17.78
2022-08-05T13:14:06.378Z,17.65
2022-08-05T13:16:17.922Z,18.05
2022-08-05T13:18:52.191Z,17.52
2022-08-05T13:21:28.474Z,16.38
2022-08-05T13:24:09.095Z,17.10
2022-08-05T13:26:37.434Z,16.76
2022-08-05T13:29:07.871Z,16.35
2022-08-05T13:32:04.145Z,16.99
2022-08-05T13:34:26.225Z,16.85
2022-08-05T13:36:54.799Z,16.82
2022-08-05T13:39:24.498Z,17.11
2022-08-05T13:42:14.746Z,17.27
2022-08-05T13:44:45.691Z,17.17
2022-08-05T13:47:35.817Z,17.09
2022-08-05T13:50:13.529Z,18.58
2022-08-05T13:52:45.460Z,17.30
2022-08-05T13:55:40.746Z,17.22
2022-08-05T13:58:11.902Z,16.84
2022-08-05T14:03:12.011Z,16.43
2022-08-05T14:06:04.830Z,16.17
2022-08-05T14:08:32.619Z,15.88
2022-08-05T14:11:19.746Z,15.88
2022-08-05T14:13:49.381Z,15.39
2022-08-05T14:16:25.016Z,15.55
2022-08-05T14:18:53.137Z,15.35
2022-08-05T14:22:08.591Z,14.80
2022-08-05T14:24:11.853Z,14.56
2022-08-05T14:27:02.107Z,14.85
2022-08-05T14:29:34.732Z,14.95
2022-08-05T14:32:13.778Z,14.29
2022-08-05T14:34:45.188Z,14.43
2022-08-05T14:37:14.123Z,14.77
2022-08-05T14:39:50.115Z,13.93
2022-08-05T14:42:26.991Z,14.59
2022-08-05T14:44:56.619Z,13.84
2022-08-05T14:48:03.645Z,14.03
2022-08-05T14:50:19.032Z,14.20
2022-08-05T14:52:53.485Z,13.87
2022-08-05T14:55:28.755Z,13.53
2022-08-05T14:58:11.966Z,13.94
2022-08-05T15:00:58.213Z,14.03
2022-08-05T15:03:33.930Z,14.06
2022-08-05T15:06:14.781Z,13.70
2022-08-05T15:09:01.210Z,14.21
2022-08-05T15:11:52.831Z,14.92
2022-08-05T15:14:35.937Z,14.38
2022-08-05T15:17:44.748Z,14.39
2022-08-05T15:20:03.996Z,14.19
2022-08-05T15:22:32.107Z,13.71
2022-08-05T15:25:13.817Z,14.47
2022-08-05T15:27:52.033Z,14.38
2022-08-05T15:30:20.507Z,14.78
2022-08-05T15:32:51.128Z,14.03
2022-08-05T15:35:21.986Z,14.33
2022-08-05T15:38:33.218Z,14.38
2022-08-05T15:40:58.612Z,13.68
2022-08-05T15:43:46.029Z,14.63
2022-08-05T15:46:15.476Z,14.22
2022-08-05T15:48:52.658Z,14.30
2022-08-05T15:52:12.428Z,14.52
2022-08-05T15:54:34.496Z,14.60
2022-08-05T15:57:03.763Z,14.27
2022-08-05T15:59:36.459Z,14.66
2022-08-05T16:02:14.682Z,14.24
2022-08-05T16:04:44.006Z,14.81
2022-08-05T16:07:19.466Z,14.49
2022-08-05T16:09:51.122Z,14.07
2022-08-05T16:12:23.280Z,14.21
2022-08-05T16:14:51.615Z,14.23
2022-08-05T16:17:20.328Z,14.54
2022-08-05T16:20:03.070Z,15.16
2022-08-05T16:22:35.676Z,14.38
2022-08-05T16:25:09.826Z,14.26
2022-08-05T16:27:59.988Z,14.68
2022-08-05T16:30:28.864Z,14.74
2022-08-05T16:32:58.141Z,14.71
2022-08-05T16:35:28.464Z,15.03
2022-08-05T16:38:21.879Z,14.80
2022-08-05T16:40:55.760Z,14.75
2022-08-05T16:43:31.817Z,14.47
2022-08-05T16:46:05.010Z,15.11
2022-08-05T16:48:38.892Z,14.28
2022-08-05T16:51:12.063Z,14.64
2022-08-05T16:54:04.706Z,15.29
2022-08-05T16:56:34.184Z,15.98
2022-08-05T16:59:07.523Z,15.96
2022-08-05T17:01:53.996Z,15.90
2022-08-05T17:04:26.044Z,15.39
2022-08-05T17:06:55.955Z,15.86
2022-08-05T17:12:00.501Z,15.86
2022-08-05T17:14:37.177Z,16.33
2022-08-05T17:17:14.151Z,16.26
2022-08-05T17:19:45.521Z,16.26
2022-08-05T17:22:17.728Z,17.01
2022-08-05T17:25:00.183Z,16.27
2022-08-05T17:27:33.376Z,16.42
2022-08-05T17:30:03.149Z,16.77
2022-08-05T17:32:33.773Z,16.59
2022-08-05T17:35:04.471Z,16.90
2022-08-05T17:37:40.298Z,15.97
2022-08-05T17:40:15.998Z,17.63
2022-08-05T17:42:51.311Z,17.39
2022-08-05T17:45:22.288Z,17.86
2022-08-05T17:50:28.952Z,18.15
2022-08-05T17:53:01.867Z,18.31
2022-08-05T17:55:37.147Z,18.45
2022-08-05T17:58:16.390Z,18.91
2022-08-05T18:00:50.708Z,19.35
2022-08-05T18:06:11.313Z,19.37
2022-08-05T18:08:44.447Z,19.78
2022-08-05T18:13:52.038Z,21.02
2022-08-05T18:16:21.070Z,21.35
2022-08-05T18:21:26.307Z,21.92
2022-08-05T18:24:00.122Z,22.89
2022-08-05T18:29:05.095Z,23.52
2022-08-05T18:31:43.121Z,23.38
2022-08-05T18:34:12.290Z,23.55
2022-08-05T18:36:43.535Z,23.49
2022-08-05T18:39:41.863Z,23.73
2022-08-05T18:42:11.505Z,23.66
2022-08-05T18:44:51.741Z,24.48
2022-08-05T18:47:28.113Z,25.01
2022-08-05T18:50:20.978Z,24.94
2022-08-05T18:53:20.592Z,25.24
2022-08-05T18:55:55.203Z,25.80
2022-08-05T18:58:30.154Z,26.01
2022-08-05T19:01:17.807Z,26.28
2022-08-05T19:03:53.318Z,26.38
2022-08-05T19:06:34.396Z,26.80
2022-08-05T19:09:16.942Z,26.43
2022-08-05T19:12:00.568Z,26.27
2022-08-05T19:14:59.313Z,26.41
2022-08-05T19:17:33.729Z,26.34
2022-08-05T19:20:16.821Z,26.33
2022-08-05T19:22:49.262Z,26.52
2022-08-05T19:25:29.553Z,26.90
2022-08-05T19:28:00.479Z,26.81
2022-08-05T19:30:31.331Z,26.54
2022-08-05T19:33:04.659Z,26.91
2022-08-05T19:35:56.524Z,27.18
2022-08-05T19:38:26.621Z,26.74
2022-08-05T19:40:56.456Z,27.21
2022-08-05T19:46:00.442Z,27.90
2022-08-05T19:48:32.893Z,28.20
2022-08-05T19:56:13.587Z,28.55
2022-08-05T19:59:51.150Z,28.94
2022-08-05T20:01:51.983Z,29.14
2022-08-05T20:04:22.369Z,28.87
2022-08-05T20:06:56.420Z,28.96
2022-08-05T20:09:53.662Z,28.65
2022-08-05T20:12:21.182Z,29.02
2022-08-05T20:14:53.413Z,29.28
2022-08-05T20:17:24.029Z,24.13
2022-08-05T20:19:57.650Z,28.62
2022-08-05T20:22:27.180Z,28.72
2022-08-05T20:25:01.783Z,28.84
2022-08-05T20:30:11.354Z,29.28
2022-08-05T20:32:45.604Z,29.73
2022-08-05T20:35:22.563Z,29.87
2022-08-05T20:38:05.758Z,30.26
2022-08-05T20:40:43.156Z,30.36
2022-08-05T20:43:12.747Z,30.76
2022-08-05T20:48:13.003Z,30.22
2022-08-05T20:50:47.077Z,30.10
2022-08-05T20:53:36.507Z,30.30
2022-08-05T20:56:09.470Z,30.12
2022-08-05T20:58:44.267Z,29.92
2022-08-05T21:01:37.153Z,30.53
2022-08-05T21:04:10.669Z,30.49
2022-08-05T21:09:11.569Z,30.25
2022-08-05T21:12:07.367Z,30.27
2022-08-05T21:14:38.341Z,30.50
2022-08-05T21:17:12.684Z,30.75
2022-08-05T21:19:47.907Z,31.22
2022-08-05T21:22:26.020Z,31.33
2022-08-05T21:25:03.364Z,31.64
2022-08-05T21:30:24.454Z,31.70
2022-08-05T21:33:07.144Z,31.45
2022-08-05T21:35:55.930Z,32.26
2022-08-05T21:38:32.195Z,32.36
2022-08-05T21:41:04.172Z,33.60
2022-08-05T21:43:41.715Z,35.37
2022-08-05T21:46:17.442Z,36.12
2022-08-05T21:48:56.716Z,35.64
2022-08-05T21:52:22.648Z,35.36
2022-08-05T21:54:14.238Z,34.81
2022-08-05T21:56:51.436Z,34.30
2022-08-05T21:59:25.049Z,33.81
2022-08-05T22:04:33.405Z,33.23
2022-08-05T22:07:02.414Z,33.05
2022-08-05T22:09:45.785Z,33.71
2022-08-05T22:12:15.425Z,32.93
2022-08-05T22:20:03.386Z,33.49
2022-08-05T22:23:03.561Z,32.69
2022-08-05T22:26:09.632Z,33.67
2022-08-05T22:28:41.335Z,33.63
2022-08-05T22:31:09.309Z,34.06
2022-08-05T22:33:55.397Z,34.33
2022-08-05T22:36:27.817Z,33.56
2022-08-05T22:39:04.205Z,32.95
2022-08-05T22:42:09.810Z,33.48
2022-08-05T22:44:31.269Z,34.75
2022-08-05T22:47:00.561Z,36.21
2022-08-05T22:50:18.361Z,37.14
2022-08-05T22:52:32.142Z,37.20
2022-08-05T22:55:18.599Z,37.45
2022-08-05T22:57:52.488Z,37.56
2022-08-05T23:00:22.455Z,37.69
2022-08-05T23:02:52.850Z,37.66
2022-08-05T23:07:53.828Z,37.93
2022-08-05T23:10:26.038Z,38.39
2022-08-05T23:12:55.876Z,37.75
2022-08-05T23:15:29.912Z,38.26
2022-08-05T23:18:15.849Z,38.56
2022-08-05T23:20:52.869Z,39.04
2022-08-05T23:23:21.413Z,39.08
2022-08-05T23:25:55.508Z,38.55
2022-08-05T23:28:28.783Z,39.18
2022-08-05T23:31:16.083Z,39.06
2022-08-05T23:34:04.197Z,39.85
2022-08-05T23:36:44.620Z,39.74
2022-08-05T23:39:17.660Z,39.52
2022-08-05T23:42:04.834Z,39.56
2022-08-05T23:44:42.609Z,39.21
2022-08-05T23:47:15.750Z,39.15
2022-08-05T23:49:56.695Z,39.21
2022-08-05T23:52:27.564Z,39.03
2022-08-05T23:54:58.560Z,39.39
2022-08-05T23:57:29.224Z,39.70
